METAR - Ísland

Uppfært síðast 27.05.2019 - kl. 00:11

SIGMET síðustu 6 klst.

Engin SIGMET skeyti bárust síðustu 6 klst.

METAR síðustu 3 klst

Flugv.TímiSkeyti
BIAR2019-05-27 00.00METAR BIAR 270000Z 29005KT CAVOK 03/M01 Q1015
BIAR2019-05-26 23.00METAR BIAR 262300Z 29008KT CAVOK 04/M01 Q1015
BIAR2019-05-26 22.00METAR BIAR 262200Z 31007KT CAVOK 05/M01 Q1015
BIEG2019-05-27 00.00METAR BIEG 270000Z 02008KT 9999 BKN030 02/M02 Q1015
BIEG2019-05-26 23.00METAR BIEG 262300Z 02006KT 9999 BKN030 02/M02 Q1015
BIEG2019-05-26 22.00METAR BIEG 262200Z 01008KT 9999 BKN028 03/M03 Q1015
BIKF2019-05-27 00.00METAR BIKF 270000Z 29007KT 9999 FEW010 SCT060 08/06 Q1013
BIKF2019-05-26 23.30METAR BIKF 262330Z 29007KT 240V330 9999 FEW010 SCT052 BKN075 08/06 Q1013
BIKF2019-05-26 23.00METAR BIKF 262300Z 28008KT CAVOK 08/06 Q1013
BIKF2019-05-26 22.30METAR BIKF 262230Z 29008KT CAVOK 09/06 Q1013
BIKF2019-05-26 22.00METAR BIKF 262200Z 30009KT CAVOK 09/07 Q1013
BIKF2019-05-26 21.30METAR BIKF 262130Z 30010KT CAVOK 09/06 Q1013
BIRK2019-05-27 00.00METAR BIRK 270000Z 25010KT CAVOK 09/04 Q1013
BIRK2019-05-26 23.00METAR BIRK 262300Z 26008KT CAVOK 09/04 Q1013
BIRK2019-05-26 22.00METAR BIRK 262200Z 27008KT 9999 FEW018 10/05 Q1013

Textaspár eru skrifaðar af vakthafandi veðurfræðingi á Veðurstofu Íslands.




Aðrir tengdir vefir



Þetta vefsvæði byggir á Eplica